Time;durP1;ratioP1;P1;durP2;ratioP2;P2;SDS_P1;SDS_P2;PMS_P1;PMS_P2;Temp;Humidity;BMP_temperature;BMP_pressure;BME280_temperature;BME280_humidity;BME280_pressure;Samples;Min_cycle;Max_cycle;Signal;HPM_P1;HPM_P2
2022/07/29 00:01:20;;;;;;;2.58;1.60;;;15.00;99.90;;;;;;4838092;29;20046;-65
2022/07/29 00:03:46;;;;;;;4.63;1.70;;;15.00;99.90;;;;;;4840245;29;20060;-66
2022/07/29 00:06:11;;;;;;;4.10;1.77;;;14.90;99.90;;;;;;4824398;29;20058;-64
2022/07/29 00:08:37;;;;;;;1.98;1.30;;;15.00;99.90;;;;;;4825261;29;20062;-65
2022/07/29 00:11:03;;;;;;;2.80;1.70;;;15.00;99.90;;;;;;4833350;29;20183;-65
2022/07/29 00:13:29;;;;;;;3.95;1.95;;;14.90;99.90;;;;;;4840224;29;20054;-65
2022/07/29 00:15:54;;;;;;;3.50;1.75;;;15.00;99.90;;;;;;4840646;29;20062;-65
2022/07/29 00:18:20;;;;;;;2.97;1.42;;;14.90;99.90;;;;;;4841693;29;20392;-65
2022/07/29 00:20:45;;;;;;;1.65;1.30;;;14.90;99.90;;;;;;4839850;29;20089;-65
2022/07/29 00:23:11;;;;;;;1.55;1.45;;;14.90;99.90;;;;;;4841492;29;20066;-64
2022/07/29 00:25:37;;;;;;;4.72;1.63;;;14.90;99.90;;;;;;4840317;29;20054;-65
2022/07/29 00:28:02;;;;;;;2.15;1.85;;;14.90;99.90;;;;;;4841351;29;20054;-65
2022/07/29 00:30:28;;;;;;;2.70;1.73;;;14.90;99.90;;;;;;4837911;29;20050;-65
2022/07/29 00:32:53;;;;;;;2.05;1.80;;;14.80;99.90;;;;;;4840246;29;20053;-65
2022/07/29 00:38:03;;;;;;;1.95;1.67;;;14.80;99.90;;;;;;4836467;29;20122;-65
2022/07/29 00:40:29;;;;;;;2.50;1.80;;;14.80;99.90;;;;;;4842007;29;20054;-65
2022/07/29 00:42:54;;;;;;;2.55;1.70;;;14.80;99.90;;;;;;4838587;29;20058;-65
2022/07/29 00:45:21;;;;;;;2.53;1.90;;;14.80;99.90;;;;;;4840382;29;20054;-65
2022/07/29 00:47:47;;;;;;;2.63;1.88;;;14.70;99.90;;;;;;4842423;29;20529;-64
2022/07/29 00:50:13;;;;;;;3.40;2.05;;;14.80;99.90;;;;;;4840116;29;20085;-65
2022/07/29 00:52:41;;;;;;;2.55;1.70;;;14.70;99.90;;;;;;4840956;29;20064;-65
2022/07/29 00:55:09;;;;;;;2.30;2.05;;;14.70;99.90;;;;;;4841454;29;20106;-65
2022/07/29 00:57:36;;;;;;;3.40;1.95;;;14.70;99.90;;;;;;4838543;29;20058;-65
2022/07/29 01:00:04;;;;;;;3.97;1.90;;;14.70;99.90;;;;;;4838442;29;20058;-65
2022/07/29 01:02:30;;;;;;;2.88;2.10;;;14.70;99.90;;;;;;4841443;29;20062;-64
2022/07/29 01:04:57;;;;;;;4.13;2.00;;;14.70;99.90;;;;;;4841208;29;20441;-65
2022/07/29 01:07:25;;;;;;;2.67;1.90;;;14.70;99.90;;;;;;4839095;29;20068;-64
2022/07/29 01:09:51;;;;;;;2.28;1.90;;;14.70;99.90;;;;;;4842673;29;20121;-65
2022/07/29 01:12:21;;;;;;;3.67;2.15;;;14.70;99.90;;;;;;4836863;29;20054;-64
2022/07/29 01:14:48;;;;;;;3.42;2.15;;;14.70;99.90;;;;;;4837505;29;20065;-65
2022/07/29 01:17:36;;;;;;;4.10;2.20;;;14.70;99.90;;;;;;4840459;29;20061;-65
2022/07/29 01:20:24;;;;;;;3.40;2.00;;;14.70;99.90;;;;;;4841254;29;20488;-65
2022/07/29 01:23:15;;;;;;;2.47;2.03;;;14.70;99.90;;;;;;4839400;29;20054;-65
2022/07/29 01:26:15;;;;;;;2.70;1.95;;;14.70;99.90;;;;;;4840900;29;20053;-64
2022/07/29 01:29:10;;;;;;;2.10;1.63;;;14.80;99.90;;;;;;4839779;29;20053;-65
2022/07/29 01:31:55;;;;;;;2.15;1.83;;;14.80;99.90;;;;;;4836257;29;20101;-65
2022/07/29 01:34:30;;;;;;;2.53;2.00;;;14.80;99.90;;;;;;4824126;29;20452;-64
2022/07/29 01:37:26;;;;;;;2.25;1.75;;;14.80;99.90;;;;;;4841194;29;20064;-65
2022/07/29 01:39:56;;;;;;;4.45;1.90;;;14.80;99.90;;;;;;4838850;29;20076;-65
2022/07/29 01:42:31;;;;;;;9.38;2.00;;;14.80;99.90;;;;;;4840439;29;20457;-65
2022/07/29 01:45:20;;;;;;;2.70;1.77;;;14.80;99.90;;;;;;4824210;29;20561;-65
2022/07/29 01:48:06;;;;;;;6.20;2.40;;;14.80;99.90;;;;;;4840711;29;20061;-64
2022/07/29 01:50:37;;;;;;;3.40;1.88;;;14.80;99.90;;;;;;4839123;29;20072;-65
2022/07/29 01:53:07;;;;;;;3.65;1.80;;;14.80;99.90;;;;;;4841391;29;20147;-65
2022/07/29 01:55:38;;;;;;;2.25;1.70;;;14.80;99.90;;;;;;4842353;29;20054;-64
2022/07/29 01:58:05;;;;;;;2.78;1.63;;;14.70;99.90;;;;;;4843554;29;20185;-65
2022/07/29 02:00:33;;;;;;;2.13;1.90;;;14.80;99.90;;;;;;4834232;29;20054;-65
2022/07/29 02:03:02;;;;;;;3.40;1.92;;;14.70;99.90;;;;;;4836212;29;20062;-64
2022/07/29 02:05:29;;;;;;;2.55;2.00;;;14.70;99.90;;;;;;4844862;29;20528;-64
2022/07/29 02:07:57;;;;;;;2.78;1.50;;;14.70;99.90;;;;;;4823988;29;20069;-65
2022/07/29 02:10:28;;;;;;;3.88;2.10;;;14.70;99.90;;;;;;4826683;29;20058;-64
2022/07/29 02:12:55;;;;;;;4.07;1.80;;;14.70;99.90;;;;;;4830383;29;20061;-64
2022/07/29 02:15:26;;;;;;;2.58;1.63;;;14.70;99.90;;;;;;4813446;29;20476;-64
2022/07/29 02:17:57;;;;;;;3.30;1.60;;;14.70;99.90;;;;;;4802939;29;20464;-65
2022/07/29 02:20:25;;;;;;;3.03;1.90;;;14.70;99.90;;;;;;4826322;29;20523;-64
2022/07/29 02:22:53;;;;;;;3.30;1.75;;;14.70;99.90;;;;;;4823619;29;20058;-65
2022/07/29 02:25:21;;;;;;;2.47;1.70;;;14.70;99.90;;;;;;4821584;29;20453;-64
2022/07/29 02:27:50;;;;;;;5.18;1.92;;;14.70;99.90;;;;;;4825219;29;20133;-64
2022/07/29 02:30:17;;;;;;;2.35;1.75;;;14.60;99.90;;;;;;4841655;29;20054;-64
2022/07/29 02:32:45;;;;;;;2.13;1.58;;;14.60;99.90;;;;;;4809430;29;20575;-65
2022/07/29 02:35:13;;;;;;;6.38;1.90;;;14.60;99.90;;;;;;4810211;29;20055;-65
2022/07/29 02:37:40;;;;;;;2.45;1.50;;;14.60;99.90;;;;;;4825085;29;20090;-64
2022/07/29 02:40:11;;;;;;;5.38;1.77;;;14.60;99.90;;;;;;4839454;29;20068;-65
2022/07/29 02:42:40;;;;;;;4.03;1.70;;;14.60;99.90;;;;;;4827604;29;20053;-64
2022/07/29 02:45:06;;;;;;;3.53;1.70;;;14.60;99.90;;;;;;4842666;29;20129;-64
2022/07/29 02:47:49;;;;;;;3.33;1.77;;;14.50;99.90;;;;;;4826958;29;20190;-64
2022/07/29 02:50:21;;;;;;;7.32;2.30;;;14.50;99.90;;;;;;4826701;29;20133;-64
2022/07/29 02:52:55;;;;;;;2.35;1.90;;;14.50;99.90;;;;;;4823564;29;20059;-63
2022/07/29 02:55:36;;;;;;;2.53;1.60;;;14.50;99.90;;;;;;4824912;29;20137;-65
2022/07/29 02:58:05;;;;;;;3.15;1.67;;;14.50;99.90;;;;;;4822272;29;20106;-64
2022/07/29 03:00:36;;;;;;;5.13;1.88;;;14.50;99.90;;;;;;4847343;29;20054;-64
2022/07/29 03:03:04;;;;;;;2.80;1.70;;;14.50;99.90;;;;;;4840898;29;20133;-63
2022/07/29 03:05:31;;;;;;;2.75;1.90;;;14.50;99.90;;;;;;4843173;29;20057;-64
2022/07/29 03:08:04;;;;;;;4.03;2.20;;;14.50;99.90;;;;;;4842258;29;20079;-65
2022/07/29 03:10:30;;;;;;;2.90;1.80;;;14.50;99.90;;;;;;4842710;29;20061;-64
2022/07/29 03:12:57;;;;;;;3.30;1.85;;;14.50;99.90;;;;;;4840996;29;20068;-64
2022/07/29 03:15:24;;;;;;;3.83;1.95;;;14.40;99.90;;;;;;4844267;29;20140;-65
2022/07/29 03:17:51;;;;;;;3.75;2.03;;;14.40;99.90;;;;;;4837166;29;20117;-64
2022/07/29 03:20:17;;;;;;;5.20;1.70;;;14.50;99.90;;;;;;4843942;29;20057;-65
2022/07/29 03:22:46;;;;;;;2.22;1.70;;;14.40;99.90;;;;;;4840555;29;20057;-64
2022/07/29 03:25:13;;;;;;;2.25;1.70;;;14.40;99.90;;;;;;4841755;29;20511;-64
2022/07/29 03:27:39;;;;;;;4.28;1.90;;;14.40;99.90;;;;;;4842350;29;20064;-65
2022/07/29 03:30:06;;;;;;;3.47;1.80;;;14.40;99.90;;;;;;4840279;29;20133;-64
2022/07/29 03:32:32;;;;;;;4.28;1.85;;;14.40;99.90;;;;;;4838852;29;20058;-64
2022/07/29 03:34:57;;;;;;;4.18;1.83;;;14.40;99.90;;;;;;4842478;29;20501;-64
2022/07/29 03:37:26;;;;;;;2.50;1.60;;;14.40;99.90;;;;;;4840918;29;20050;-64
2022/07/29 03:40:02;;;;;;;3.60;2.00;;;14.40;99.90;;;;;;4840548;29;20050;-64
2022/07/29 03:42:34;;;;;;;4.15;1.90;;;14.40;99.90;;;;;;4841124;29;20061;-64
2022/07/29 03:45:03;;;;;;;3.15;1.77;;;14.30;99.90;;;;;;4824556;29;20495;-64
2022/07/29 03:47:31;;;;;;;2.40;1.90;;;14.30;99.90;;;;;;4841834;29;20069;-64
2022/07/29 03:50:05;;;;;;;2.33;1.60;;;14.30;99.90;;;;;;4841512;29;20114;-64
2022/07/29 03:52:30;;;;;;;2.22;1.85;;;14.40;99.90;;;;;;4838440;29;20054;-65
2022/07/29 03:54:56;;;;;;;1.88;1.65;;;14.30;99.90;;;;;;4839955;29;20132;-64
2022/07/29 03:57:27;;;;;;;3.65;2.10;;;14.20;99.90;;;;;;4840716;29;20054;-65
2022/07/29 03:59:53;;;;;;;2.67;1.58;;;14.20;99.90;;;;;;4841707;29;20400;-64
2022/07/29 04:02:25;;;;;;;;;;;14.20;99.90;;;;;;4821836;29;20141;-65
2022/07/29 04:04:51;;;;;;;3.60;1.67;;;14.20;99.90;;;;;;4840744;29;19928;-64
2022/07/29 04:07:24;;;;;;;2.58;1.70;;;14.20;99.90;;;;;;4839736;29;20491;-64
2022/07/29 04:09:50;;;;;;;3.58;1.70;;;14.20;99.90;;;;;;4841838;29;20061;-64
2022/07/29 04:12:15;;;;;;;3.03;2.00;;;14.20;99.90;;;;;;4839613;29;20054;-64
2022/07/29 04:14:41;;;;;;;3.95;1.90;;;14.20;99.90;;;;;;4842207;29;20436;-64
2022/07/29 04:17:07;;;;;;;2.15;1.75;;;14.20;99.90;;;;;;4838023;29;21777;-64
2022/07/29 04:19:36;;;;;;;2.25;1.70;;;14.20;99.90;;;;;;4824288;29;20407;-64
2022/07/29 04:22:02;;;;;;;2.47;1.70;;;14.20;99.90;;;;;;4841473;29;20086;-65
2022/07/29 04:24:28;;;;;;;4.35;1.70;;;14.20;99.90;;;;;;4825764;29;20085;-64
2022/07/29 04:26:54;;;;;;;4.78;2.03;;;14.20;99.90;;;;;;4824349;29;20091;-64
2022/07/29 04:29:20;;;;;;;4.80;2.03;;;14.20;99.90;;;;;;4837961;29;20087;-65
2022/07/29 04:31:45;;;;;;;3.55;1.98;;;14.20;99.90;;;;;;4810621;29;20166;-64
2022/07/29 04:34:12;;;;;;;2.90;1.65;;;14.30;99.90;;;;;;4840757;29;20046;-63
2022/07/29 04:36:38;;;;;;;2.85;1.80;;;14.30;99.90;;;;;;4838349;29;20407;-64
2022/07/29 04:39:06;;;;;;;2.83;2.10;;;14.60;99.90;;;;;;4841465;29;20058;-64
2022/07/29 04:41:32;;;;;;;4.53;1.88;;;14.30;99.90;;;;;;4838720;29;20053;-64
2022/07/29 04:44:00;;;;;;;3.10;2.20;;;14.20;99.90;;;;;;4840795;29;20069;-64
2022/07/29 04:46:26;;;;;;;3.05;2.13;;;14.30;99.90;;;;;;4824443;29;20054;-63
2022/07/29 04:48:51;;;;;;;2.60;1.83;;;14.30;99.90;;;;;;4841722;29;20057;-63
2022/07/29 04:51:17;;;;;;;2.63;1.83;;;14.30;99.90;;;;;;4840744;29;20410;-64
2022/07/29 04:53:43;;;;;;;2.45;1.98;;;14.30;99.90;;;;;;4842562;29;20053;-64
2022/07/29 04:56:08;;;;;;;3.35;1.90;;;14.30;99.90;;;;;;4836853;29;20082;-64
2022/07/29 04:58:35;;;;;;;3.28;1.90;;;14.30;99.90;;;;;;4838032;29;20060;-64
2022/07/29 05:01:00;;;;;;;2.25;2.00;;;14.30;99.90;;;;;;4837697;29;20059;-64
2022/07/29 05:03:26;;;;;;;3.13;2.35;;;14.30;99.90;;;;;;4837118;29;20050;-64
2022/07/29 05:05:52;;;;;;;2.28;1.70;;;14.30;99.90;;;;;;4841556;29;20121;-64
2022/07/29 05:08:17;;;;;;;3.40;2.20;;;14.40;99.90;;;;;;4840312;29;20066;-64
2022/07/29 05:10:43;;;;;;;4.68;2.35;;;14.40;99.90;;;;;;4837174;29;20054;-64
2022/07/29 05:13:08;;;;;;;3.53;2.20;;;14.40;99.90;;;;;;4841053;29;20114;-64
2022/07/29 05:15:35;;;;;;;3.75;1.90;;;14.40;99.90;;;;;;4840001;29;20050;-64
2022/07/29 05:18:01;;;;;;;3.60;2.05;;;14.50;99.90;;;;;;4840695;29;20415;-63
2022/07/29 05:20:28;;;;;;;2.78;2.10;;;14.50;99.90;;;;;;4836394;29;20193;-64
2022/07/29 05:22:58;;;;;;;2.97;1.98;;;14.50;99.90;;;;;;4851990;29;20053;-64
2022/07/29 05:25:25;;;;;;;3.70;1.92;;;14.50;99.90;;;;;;4837561;29;20058;-64
2022/07/29 05:27:51;;;;;;;3.40;2.15;;;14.50;99.90;;;;;;4841925;29;20464;-64
2022/07/29 05:30:16;;;;;;;5.47;2.00;;;14.60;99.90;;;;;;4837594;29;20053;-64
2022/07/29 05:32:42;;;;;;;4.30;1.85;;;14.50;99.90;;;;;;4844178;29;20097;-64
2022/07/29 05:35:09;;;;;;;4.43;2.03;;;14.60;99.90;;;;;;4839267;29;20054;-64
2022/07/29 05:37:35;;;;;;;3.30;2.20;;;14.60;99.90;;;;;;4841923;29;20381;-65
2022/07/29 05:40:02;;;;;;;3.47;1.90;;;14.70;99.90;;;;;;4839520;29;20155;-64
2022/07/29 05:42:28;;;;;;;4.68;2.10;;;14.70;99.90;;;;;;4844820;29;20062;-64
2022/07/29 05:44:55;;;;;;;2.97;1.80;;;14.90;99.90;;;;;;4844609;29;20052;-65
2022/07/29 05:47:21;;;;;;;2.67;1.85;;;15.00;99.90;;;;;;4828598;29;20456;-64
2022/07/29 05:49:46;;;;;;;4.88;2.08;;;15.10;99.90;;;;;;4844279;29;20065;-64
2022/07/29 05:52:13;;;;;;;3.60;2.20;;;15.20;99.90;;;;;;4843485;29;20152;-64
2022/07/29 05:54:39;;;;;;;2.80;1.77;;;15.20;99.90;;;;;;4842307;29;20118;-65
2022/07/29 05:57:05;;;;;;;3.78;2.00;;;15.20;99.90;;;;;;4843727;29;20102;-63
2022/07/29 05:59:34;;;;;;;2.42;1.60;;;15.50;99.90;;;;;;4841643;29;20078;-64
2022/07/29 06:02:00;;;;;;;2.65;2.05;;;15.60;99.90;;;;;;4825562;29;20062;-65
2022/07/29 06:04:26;;;;;;;2.47;1.80;;;15.70;99.90;;;;;;4825296;29;20098;-66
2022/07/29 06:06:51;;;;;;;2.13;1.60;;;15.80;99.90;;;;;;4809961;29;20085;-65
2022/07/29 06:09:17;;;;;;;2.95;1.73;;;16.30;99.90;;;;;;4809808;29;20141;-66
2022/07/29 06:11:42;;;;;;;2.20;1.98;;;17.00;99.90;;;;;;4810234;29;20054;-65
2022/07/29 06:14:08;;;;;;;3.42;1.70;;;17.50;99.90;;;;;;4826457;29;20054;-64
2022/07/29 06:16:33;;;;;;;5.18;1.95;;;17.50;99.90;;;;;;4826522;29;20541;-65
2022/07/29 06:18:59;;;;;;;3.13;1.95;;;17.40;99.90;;;;;;4812552;29;20062;-65
2022/07/29 06:21:25;;;;;;;2.83;1.83;;;17.40;99.90;;;;;;4816170;29;20060;-65
2022/07/29 06:23:50;;;;;;;2.38;1.70;;;17.20;99.90;;;;;;4825282;29;20058;-65
2022/07/29 06:26:16;;;;;;;5.35;2.10;;;16.90;99.90;;;;;;4831802;29;20201;-66
2022/07/29 06:28:41;;;;;;;3.22;1.70;;;16.80;99.90;;;;;;4828160;29;20064;-65
2022/07/29 06:31:07;;;;;;;4.40;1.80;;;16.70;99.90;;;;;;4826611;29;20058;-67
2022/07/29 06:33:33;;;;;;;3.40;1.85;;;16.70;99.90;;;;;;4825459;29;20050;-64
2022/07/29 06:35:59;;;;;;;3.88;1.80;;;16.70;99.90;;;;;;4817932;29;20054;-66
2022/07/29 06:38:25;;;;;;;7.65;2.38;;;16.60;99.90;;;;;;4794830;29;20489;-65
2022/07/29 06:40:59;;;;;;;2.38;1.83;;;16.60;99.90;;;;;;4825882;29;20141;-65
2022/07/29 06:43:33;;;;;;;6.65;2.05;;;16.60;99.90;;;;;;4820058;29;20456;-65
2022/07/29 06:46:01;;;;;;;3.88;2.03;;;16.60;99.90;;;;;;4844405;29;20122;-65
2022/07/29 06:48:26;;;;;;;2.90;1.90;;;16.60;99.90;;;;;;4825837;29;20054;-65
2022/07/29 06:50:52;;;;;;;4.95;1.70;;;16.60;99.90;;;;;;4837218;29;20061;-65
2022/07/29 06:53:17;;;;;;;2.40;1.95;;;16.70;99.90;;;;;;4823666;29;20213;-64
2022/07/29 06:55:43;;;;;;;4.00;1.73;;;16.60;99.90;;;;;;4809370;29;20058;-64
2022/07/29 06:58:09;;;;;;;5.78;1.88;;;16.60;99.90;;;;;;4808980;29;20058;-65
2022/07/29 07:00:35;;;;;;;3.25;1.60;;;16.60;99.90;;;;;;4837495;29;20093;-64
2022/07/29 07:03:00;;;;;;;3.60;1.83;;;16.70;99.90;;;;;;4844044;29;20068;-64
2022/07/29 07:05:26;;;;;;;4.78;2.35;;;16.60;99.90;;;;;;4844103;29;20349;-64
2022/07/29 07:07:52;;;;;;;2.00;1.50;;;16.70;99.90;;;;;;4843259;29;20066;-64
2022/07/29 07:10:17;;;;;;;4.63;1.67;;;16.80;99.90;;;;;;4842977;29;20061;-64
2022/07/29 07:12:43;;;;;;;2.67;1.50;;;16.90;99.90;;;;;;4841617;29;20053;-65
2022/07/29 07:15:09;;;;;;;4.03;2.00;;;16.90;99.90;;;;;;4842907;29;20064;-64
2022/07/29 07:17:34;;;;;;;2.85;1.92;;;17.00;99.90;;;;;;4827455;29;20412;-64
2022/07/29 07:20:00;;;;;;;4.20;1.98;;;17.00;99.90;;;;;;4842600;29;20053;-65
2022/07/29 07:22:25;;;;;;;6.05;1.55;;;17.10;99.90;;;;;;4841779;29;20157;-64
2022/07/29 07:24:51;;;;;;;3.83;1.85;;;17.00;99.90;;;;;;4842513;29;20054;-65
2022/07/29 07:27:17;;;;;;;4.38;2.00;;;17.00;99.90;;;;;;4841993;29;20061;-65
2022/07/29 07:29:42;;;;;;;5.35;2.00;;;16.90;99.90;;;;;;4843365;29;20082;-64
2022/07/29 07:32:08;;;;;;;3.70;1.88;;;16.90;99.90;;;;;;4843546;29;20053;-65
2022/07/29 07:34:34;;;;;;;3.95;1.80;;;16.90;99.90;;;;;;4843424;29;20133;-65
2022/07/29 07:36:59;;;;;;;2.13;1.55;;;16.90;99.90;;;;;;4841487;29;20433;-63
2022/07/29 07:39:25;;;;;;;3.45;1.90;;;17.00;99.90;;;;;;4842903;29;20066;-64
2022/07/29 07:41:52;;;;;;;4.53;2.35;;;17.10;99.90;;;;;;4842485;29;20445;-63
2022/07/29 07:44:17;;;;;;;4.38;1.90;;;17.10;99.90;;;;;;4857702;29;20054;-64
2022/07/29 07:46:44;;;;;;;4.47;1.85;;;17.10;99.90;;;;;;4842328;29;20065;-64
2022/07/29 07:49:10;;;;;;;4.68;2.42;;;17.10;99.90;;;;;;4843022;29;20364;-64
2022/07/29 07:51:36;;;;;;;3.65;1.75;;;17.10;99.90;;;;;;4842783;29;20095;-64
2022/07/29 07:54:01;;;;;;;2.72;2.00;;;17.10;99.90;;;;;;4840951;29;20050;-64
2022/07/29 07:56:27;;;;;;;3.92;2.20;;;17.00;99.90;;;;;;4843347;29;20050;-64
2022/07/29 07:58:53;;;;;;;3.90;2.00;;;17.00;99.90;;;;;;4856983;29;20049;-63
2022/07/29 08:01:20;;;;;;;5.40;2.20;;;17.00;99.90;;;;;;4840718;29;20140;-64
2022/07/29 08:03:46;;;;;;;3.67;1.85;;;16.90;99.90;;;;;;4843238;29;20061;-65
2022/07/29 08:06:12;;;;;;;3.58;1.98;;;16.90;99.90;;;;;;4841016;29;20415;-63
2022/07/29 08:08:37;;;;;;;4.50;2.10;;;16.80;99.90;;;;;;4842898;29;20132;-64
2022/07/29 08:11:03;;;;;;;2.65;1.80;;;16.90;99.90;;;;;;4841270;29;20050;-64
2022/07/29 08:13:30;;;;;;;5.32;2.17;;;16.90;99.90;;;;;;4842791;29;20426;-64
2022/07/29 08:16:11;;;;;;;3.45;2.20;;;17.00;99.90;;;;;;4842153;29;20050;-63
2022/07/29 08:18:37;;;;;;;5.15;2.05;;;17.10;99.90;;;;;;4842824;29;20053;-63
2022/07/29 08:21:04;;;;;;;2.13;1.92;;;17.20;99.90;;;;;;4841294;29;20094;-63
2022/07/29 08:23:39;;;;;;;2.80;2.00;;;17.30;99.90;;;;;;4842809;29;20190;-64
2022/07/29 08:26:10;;;;;;;4.20;2.08;;;17.40;99.90;;;;;;4839189;29;20516;-65
2022/07/29 08:28:39;;;;;;;5.63;2.40;;;17.60;99.90;;;;;;4840782;29;20519;-64
2022/07/29 08:31:05;;;;;;;2.05;1.88;;;17.80;99.90;;;;;;4842423;29;20408;-64
2022/07/29 08:33:31;;;;;;;3.83;1.73;;;18.00;99.90;;;;;;4842393;29;20054;-63
2022/07/29 08:35:57;;;;;;;4.47;2.35;;;18.10;99.90;;;;;;4842181;29;20058;-64
2022/07/29 08:38:22;;;;;;;4.47;1.65;;;18.20;99.90;;;;;;4841127;29;20141;-65
2022/07/29 08:40:48;;;;;;;5.07;2.13;;;18.40;99.90;;;;;;4842194;29;20053;-65
2022/07/29 08:43:14;;;;;;;4.80;2.28;;;18.50;99.90;;;;;;4841020;29;20062;-64
2022/07/29 08:45:45;;;;;;;4.03;1.92;;;18.40;99.90;;;;;;4840864;29;20054;-65
2022/07/29 08:48:12;;;;;;;4.55;2.22;;;18.40;99.90;;;;;;4842367;29;20061;-63
2022/07/29 08:50:39;;;;;;;3.67;1.90;;;18.40;99.90;;;;;;4856141;29;20087;-64
2022/07/29 08:53:07;;;;;;;3.58;2.28;;;18.40;99.90;;;;;;4841225;29;20066;-65
2022/07/29 08:55:33;;;;;;;5.38;2.33;;;18.40;99.90;;;;;;4842609;29;20118;-64
2022/07/29 08:58:00;;;;;;;3.00;2.10;;;18.50;99.90;;;;;;4856713;29;20054;-64
2022/07/29 09:00:26;;;;;;;6.45;2.22;;;18.60;99.90;;;;;;4840839;29;20452;-65
2022/07/29 09:02:57;;;;;;;7.35;2.50;;;18.60;99.90;;;;;;4841959;29;20061;-64
2022/07/29 09:05:24;;;;;;;7.20;2.33;;;18.60;99.90;;;;;;4841987;29;20081;-64
2022/07/29 09:07:50;;;;;;;4.32;2.20;;;18.60;99.90;;;;;;4840219;29;20487;-65
2022/07/29 09:10:16;;;;;;;4.10;2.20;;;18.50;99.90;;;;;;4840160;29;20125;-64
2022/07/29 09:12:42;;;;;;;6.63;2.28;;;18.40;99.90;;;;;;4841796;29;20115;-65
2022/07/29 09:15:08;;;;;;;3.20;1.60;;;18.30;99.90;;;;;;4842267;29;20065;-65
2022/07/29 09:17:45;;;;;;;3.58;1.55;;;18.30;99.90;;;;;;4825702;29;20141;-65
2022/07/29 09:20:17;;;;;;;3.10;2.00;;;18.20;99.90;;;;;;4840841;29;20057;-64
2022/07/29 09:22:42;;;;;;;4.25;1.98;;;18.30;99.90;;;;;;4841461;29;20062;-65
2022/07/29 09:25:08;;;;;;;2.95;1.65;;;18.30;99.90;;;;;;4840462;29;20520;-63
2022/07/29 09:27:34;;;;;;;3.08;1.67;;;18.40;99.90;;;;;;4840766;29;20599;-65
2022/07/29 09:30:01;;;;;;;3.63;2.00;;;18.30;99.90;;;;;;4840962;29;20081;-64
2022/07/29 09:32:28;;;;;;;5.78;1.90;;;18.40;99.90;;;;;;4825635;29;20114;-65
2022/07/29 09:35:16;;;;;;;2.85;1.88;;;18.40;99.90;;;;;;4842030;29;20110;-64
2022/07/29 09:37:42;;;;;;;2.08;1.73;;;18.40;99.90;;;;;;4840281;29;20518;-64
2022/07/29 09:40:15;;;;;;;5.07;1.83;;;18.50;99.90;;;;;;4841655;29;20065;-64
2022/07/29 09:42:41;;;;;;;3.00;2.08;;;18.40;99.90;;;;;;4840278;29;20415;-65
2022/07/29 09:45:07;;;;;;;4.60;1.90;;;18.40;99.90;;;;;;4840495;29;20050;-64
2022/07/29 09:47:48;;;;;;;3.20;1.67;;;18.40;99.90;;;;;;4840178;29;20184;-65
2022/07/29 09:50:15;;;;;;;4.13;1.95;;;18.50;99.90;;;;;;4840941;29;20058;-64
2022/07/29 09:52:53;;;;;;;3.25;1.73;;;18.50;99.90;;;;;;4854185;29;20057;-64
2022/07/29 09:55:19;;;;;;;7.60;2.28;;;18.50;99.90;;;;;;4840325;29;20464;-64
2022/07/29 09:57:46;;;;;;;4.40;1.95;;;18.60;99.90;;;;;;4841276;29;20143;-65
2022/07/29 10:00:16;;;;;;;3.85;1.90;;;18.50;99.90;;;;;;4841668;29;20069;-65
2022/07/29 10:02:43;;;;;;;4.25;2.25;;;18.50;99.90;;;;;;4840936;29;20053;-64
2022/07/29 10:05:25;;;;;;;4.03;2.78;;;18.50;99.90;;;;;;4839463;29;20061;-64
2022/07/29 10:07:53;;;;;;;3.88;2.20;;;18.50;99.90;;;;;;4841509;29;20094;-65
2022/07/29 10:10:42;;;;;;;2.92;1.92;;;18.30;99.90;;;;;;4841202;29;20054;-64
2022/07/29 10:13:12;;;;;;;5.95;2.00;;;18.40;99.90;;;;;;4841129;29;20065;-65
2022/07/29 10:15:43;;;;;;;4.30;2.28;;;18.40;99.90;;;;;;4838216;29;20062;-65
2022/07/29 10:18:11;;;;;;;5.10;1.98;;;18.40;99.90;;;;;;4842173;29;20058;-64
2022/07/29 10:20:37;;;;;;;3.38;2.00;;;18.40;99.90;;;;;;4843655;29;20045;-64
2022/07/29 10:23:03;;;;;;;4.43;2.35;;;18.50;99.90;;;;;;4843486;29;20400;-64
2022/07/29 10:25:30;;;;;;;4.45;2.10;;;18.60;99.90;;;;;;4843968;29;20409;-64
2022/07/29 10:27:56;;;;;;;4.68;2.05;;;18.70;99.90;;;;;;4843585;29;20488;-65
2022/07/29 10:30:23;;;;;;;2.53;1.90;;;18.80;99.90;;;;;;4858982;29;20054;-65
2022/07/29 10:33:15;;;;;;;5.57;2.17;;;18.90;99.90;;;;;;4842107;29;20054;-64
2022/07/29 10:36:07;;;;;;;3.83;2.30;;;18.90;99.90;;;;;;4836704;29;20164;-64
2022/07/29 10:38:43;;;;;;;5.22;1.77;;;18.90;99.90;;;;;;4841609;29;20058;-65
2022/07/29 10:41:27;;;;;;;4.78;2.50;;;19.00;99.90;;;;;;4842649;29;20499;-65
2022/07/29 10:43:57;;;;;;;2.80;2.03;;;19.10;99.90;;;;;;4844026;29;20062;-65
2022/07/29 10:46:24;;;;;;;2.55;2.00;;;19.10;99.90;;;;;;4844591;29;20091;-65
2022/07/29 10:49:09;;;;;;;3.45;2.00;;;19.20;99.90;;;;;;4844501;29;20516;-65
2022/07/29 10:51:54;;;;;;;2.85;1.90;;;19.30;99.90;;;;;;4843876;29;20054;-65
2022/07/29 10:54:39;;;;;;;5.32;2.40;;;19.40;99.90;;;;;;4844329;29;20050;-64
2022/07/29 10:57:30;;;;;;;4.45;2.20;;;19.60;99.90;;;;;;4842171;29;20062;-64
2022/07/29 11:00:08;;;;;;;3.40;2.10;;;19.60;99.90;;;;;;4843171;29;20413;-65
2022/07/29 11:02:34;;;;;;;2.55;2.10;;;19.60;99.90;;;;;;4843231;29;20310;-65
2022/07/29 11:05:05;;;;;;;4.07;2.10;;;19.50;99.90;;;;;;4844456;29;20467;-65
2022/07/29 11:07:34;;;;;;;3.10;2.20;;;19.60;99.90;;;;;;4837465;29;20057;-64
2022/07/29 11:10:15;;;;;;;3.20;2.17;;;19.60;99.90;;;;;;4843102;29;20503;-64
2022/07/29 11:12:43;;;;;;;3.45;2.10;;;19.70;99.90;;;;;;4842794;29;20475;-64
2022/07/29 11:15:18;;;;;;;3.17;2.05;;;19.90;99.90;;;;;;4842548;29;20072;-65
2022/07/29 11:17:53;;;;;;;3.80;2.13;;;20.00;99.90;;;;;;4844157;29;20102;-66
2022/07/29 11:20:47;;;;;;;4.20;2.25;;;20.00;99.90;;;;;;4843519;29;20114;-66
2022/07/29 11:23:31;;;;;;;3.63;1.90;;;20.10;99.90;;;;;;4842854;29;20057;-65
2022/07/29 11:26:15;;;;;;;4.13;2.40;;;20.30;99.90;;;;;;4842136;29;20053;-65
2022/07/29 11:28:52;;;;;;;3.75;1.98;;;20.40;99.90;;;;;;4843004;29;20483;-64
2022/07/29 11:31:33;;;;;;;3.35;2.38;;;20.50;99.90;;;;;;4838117;29;20065;-65
2022/07/29 11:34:29;;;;;;;4.72;2.25;;;20.50;99.90;;;;;;4842089;29;20065;-65
2022/07/29 11:37:09;;;;;;;5.05;2.63;;;20.50;99.90;;;;;;4843032;29;20053;-65
2022/07/29 11:39:53;;;;;;;3.25;2.20;;;20.60;99.90;;;;;;4840271;29;20062;-65
2022/07/29 11:42:24;;;;;;;3.70;2.20;;;20.60;99.90;;;;;;4841890;29;20069;-65
2022/07/29 11:45:07;;;;;;;5.57;2.72;;;20.70;99.90;;;;;;4841672;29;20504;-64
2022/07/29 11:47:36;;;;;;;5.85;2.10;;;20.70;99.90;;;;;;4843082;29;20060;-65
2022/07/29 11:50:03;;;;;;;3.30;1.83;;;20.90;99.90;;;;;;4842065;29;20463;-66
2022/07/29 11:52:36;;;;;;;5.60;2.50;;;20.90;99.90;;;;;;4842802;29;20131;-65
2022/07/29 11:55:04;;;;;;;6.15;2.42;;;20.90;99.90;;;;;;4842289;29;20087;-65
2022/07/29 11:57:30;;;;;;;6.35;2.63;;;20.90;99.90;;;;;;4843318;29;20102;-65
2022/07/29 11:59:58;;;;;;;4.65;2.17;;;20.90;99.90;;;;;;4841864;29;20058;-65
2022/07/29 12:02:24;;;;;;;4.82;2.40;;;21.00;99.90;;;;;;4839710;29;20144;-65
2022/07/29 12:04:54;;;;;;;5.93;2.33;;;21.00;99.90;;;;;;4843119;29;20142;-65
2022/07/29 12:07:29;;;;;;;5.97;2.67;;;21.00;99.90;;;;;;4842498;29;20054;-65
2022/07/29 12:09:55;;;;;;;5.22;2.50;;;21.00;99.90;;;;;;4842879;29;20057;-65
2022/07/29 12:12:21;;;;;;;6.10;2.50;;;20.90;99.90;;;;;;4841245;29;20411;-65
2022/07/29 12:14:46;;;;;;;4.88;3.78;;;21.00;99.90;;;;;;4841293;29;20444;-66
2022/07/29 12:17:32;;;;;;;8.20;4.35;;;21.10;99.90;;;;;;4841054;29;20053;-65
2022/07/29 12:20:00;;;;;;;4.57;2.97;;;21.30;99.90;;;;;;4842593;29;20488;-66
2022/07/29 12:22:27;;;;;;;4.80;2.65;;;21.50;99.90;;;;;;4841042;29;20118;-66
2022/07/29 12:24:54;;;;;;;4.57;2.47;;;21.70;99.90;;;;;;4842984;29;20061;-64
2022/07/29 12:27:20;;;;;;;3.85;2.55;;;21.90;99.90;;;;;;4842450;29;20060;-65
2022/07/29 12:30:00;;;;;;;5.85;2.67;;;22.10;99.90;;;;;;4842769;29;20066;-65
2022/07/29 12:32:52;;;;;;;5.85;2.40;;;22.30;99.90;;;;;;4828382;29;20054;-65
2022/07/29 12:35:19;;;;;;;4.43;2.35;;;22.50;99.90;;;;;;4839715;29;20093;-66
2022/07/29 12:37:47;;;;;;;3.95;2.20;;;22.70;99.90;;;;;;4842066;29;20114;-65
2022/07/29 12:40:16;;;;;;;17.27;15.43;;;22.50;99.90;;;;;;4842264;29;20544;-66
2022/07/29 12:43:04;;;;;;;6.50;3.90;;;22.40;99.90;;;;;;4842584;29;20110;-65
2022/07/29 12:45:30;;;;;;;6.25;2.83;;;22.50;99.90;;;;;;4842241;29;20061;-65
2022/07/29 12:47:56;;;;;;;4.57;2.30;;;22.60;99.90;;;;;;4841899;29;20444;-65
2022/07/29 12:50:21;;;;;;;4.63;2.50;;;22.60;99.90;;;;;;4840725;29;20121;-65
2022/07/29 12:52:47;;;;;;;4.13;2.50;;;22.70;99.90;;;;;;4840379;29;20460;-64
2022/07/29 12:55:13;;;;;;;5.10;2.55;;;22.60;99.90;;;;;;4841025;29;20126;-65
2022/07/29 12:57:47;;;;;;;5.25;3.83;;;22.70;99.90;;;;;;4840029;29;20121;-65
2022/07/29 13:00:14;;;;;;;5.88;3.50;;;22.90;99.90;;;;;;4842238;29;20054;-65
2022/07/29 13:02:42;;;;;;;4.15;2.70;;;23.00;99.90;;;;;;4840087;29;20494;-65